Time;durP1;ratioP1;P1;durP2;ratioP2;P2;SDS_P1;SDS_P2;PMS_P1;PMS_P2;Temp;Humidity;BMP_temperature;BMP_pressure;BME280_temperature;BME280_humidity;BME280_pressure;Samples;Min_cycle;Max_cycle;Signal;HPM_P1;HPM_P2
2023/10/25 00:01:15;;;;;;;23.25;6.22;;;;;;;7.39;75.67;98524.53;5023938;28;20129;-48
2023/10/25 00:03:42;;;;;;;28.40;5.75;;;;;;;7.41;76.00;98527.97;5024445;28;20057;-53
2023/10/25 00:06:09;;;;;;;27.52;7.75;;;;;;;7.43;75.29;98515.88;5020889;28;20062;-55
2023/10/25 00:08:36;;;;;;;22.80;7.93;;;;;;;7.45;75.27;98519.31;5014688;28;20056;-51
2023/10/25 00:11:05;;;;;;;39.55;7.93;;;;;;;7.46;76.55;98515.84;5017540;28;20049;-46
2023/10/25 00:13:32;;;;;;;40.92;6.53;;;;;;;7.47;76.07;98516.72;5019880;28;20045;-48
2023/10/25 00:15:58;;;;;;;41.35;6.38;;;;;;;7.49;75.51;98527.00;5016799;28;20057;-44
2023/10/25 00:18:26;;;;;;;35.65;5.45;;;;;;;7.48;75.61;98528.72;5020874;28;20069;-52
2023/10/25 00:20:53;;;;;;;16.00;4.97;;;;;;;7.46;76.48;98528.72;5020811;28;20479;-50
2023/10/25 00:23:20;;;;;;;23.27;5.85;;;;;;;7.46;76.48;98526.16;5021623;28;20053;-48
2023/10/25 00:25:48;;;;;;;23.67;5.90;;;;;;;7.45;75.26;98524.47;5022789;28;20045;-53
2023/10/25 00:28:15;;;;;;;28.95;6.43;;;;;;;7.42;75.62;98519.34;5021434;28;20042;-43
2023/10/25 00:30:43;;;;;;;29.95;6.20;;;;;;;7.42;75.35;98521.06;5025833;28;20052;-46
2023/10/25 00:33:11;;;;;;;35.83;7.45;;;;;;;7.39;75.27;98509.09;5026682;28;20049;-50
2023/10/25 00:35:38;;;;;;;40.58;5.63;;;;;;;7.38;75.31;98512.53;5023264;28;20077;-50
2023/10/25 00:38:04;;;;;;;28.23;8.77;;;;;;;7.39;76.10;98508.22;5016308;28;20111;-51
2023/10/25 00:40:31;;;;;;;33.13;8.52;;;;;;;7.36;75.94;98509.13;5026077;28;20033;-53
2023/10/25 00:43:14;;;;;;;36.67;5.97;;;;;;;7.36;76.00;98513.44;5020184;28;20514;-50
2023/10/25 00:46:01;;;;;;;;;;;;;;;7.32;75.32;98507.47;5022225;28;20045;-48
2023/10/25 00:48:29;;;;;;;34.15;6.35;;;;;;;7.37;75.68;98500.53;5027240;28;19933;-48
2023/10/25 00:50:57;;;;;;;20.38;6.57;;;;;;;7.40;76.09;98505.63;5021568;28;20054;-46
2023/10/25 00:53:25;;;;;;;35.38;5.60;;;;;;;7.42;76.00;98509.03;5023310;28;20041;-44
2023/10/25 00:55:53;;;;;;;26.20;5.15;;;;;;;7.45;76.23;98509.00;5024770;28;20108;-48
2023/10/25 00:58:22;;;;;;;35.45;7.28;;;;;;;7.47;76.28;98509.00;5007831;28;20048;-53
2023/10/25 01:00:50;;;;;;;29.17;5.00;;;;;;;7.49;76.28;98506.41;5017555;28;20474;-45
2023/10/25 01:03:17;;;;;;;23.33;5.53;;;;;;;7.50;76.89;98500.34;5018393;28;20041;-45
2023/10/25 01:05:44;;;;;;;23.70;6.32;;;;;;;7.52;76.06;98496.88;5025023;28;20045;-45
2023/10/25 01:08:11;;;;;;;23.45;4.68;;;;;;;7.53;75.61;98495.16;5023760;28;20042;-50
2023/10/25 01:10:37;;;;;;;31.17;5.68;;;;;;;7.54;76.41;98491.69;5023647;28;20053;-51
2023/10/25 01:13:04;;;;;;;25.25;6.53;;;;;;;7.54;75.89;98489.13;5020709;28;20136;-41
2023/10/25 01:15:31;;;;;;;24.70;6.53;;;;;;;7.55;76.34;98483.94;5021325;28;20563;-48
2023/10/25 01:17:58;;;;;;;30.67;5.68;;;;;;;7.57;75.71;98483.94;5017412;28;20061;-43
2023/10/25 01:20:24;;;;;;;37.88;6.97;;;;;;;7.57;77.04;98481.34;5013285;28;20046;-46
2023/10/25 01:22:51;;;;;;;30.67;4.68;;;;;;;7.58;75.47;98483.06;5020779;28;20050;-52
2023/10/25 01:25:18;;;;;;;28.63;7.38;;;;;;;7.60;75.91;98476.13;5025165;28;20041;-54
2023/10/25 01:27:45;;;;;;;22.05;5.10;;;;;;;7.63;77.10;98465.78;5022028;28;20056;-50
2023/10/25 01:30:12;;;;;;;29.92;7.13;;;;;;;7.65;77.03;98468.34;5022096;28;20049;-50
2023/10/25 01:32:39;;;;;;;24.60;6.13;;;;;;;7.66;76.36;98470.03;5025234;28;20148;-46
2023/10/25 01:35:07;;;;;;;39.28;4.57;;;;;;;7.66;76.00;98468.31;5022260;28;20049;-50
2023/10/25 01:37:34;;;;;;;41.65;6.30;;;;;;;7.68;76.61;98471.72;5021330;28;20065;-50
2023/10/25 01:40:01;;;;;;;41.72;4.60;;;;;;;7.69;76.47;98465.69;5026589;28;20128;-47
2023/10/25 01:42:28;;;;;;;25.98;7.10;;;;;;;7.71;77.09;98463.09;5014513;28;20049;-47
2023/10/25 01:44:55;;;;;;;32.25;6.68;;;;;;;7.74;76.16;98457.03;5022354;28;20045;-47
2023/10/25 01:47:22;;;;;;;49.50;7.07;;;;;;;7.74;77.10;98457.03;5027354;28;20046;-52
2023/10/25 01:49:49;;;;;;;22.13;4.60;;;;;;;7.75;77.05;98458.72;5022843;28;20237;-46
2023/10/25 01:52:15;;;;;;;42.28;7.00;;;;;;;7.77;75.87;98459.56;5018588;28;20051;-48
2023/10/25 01:54:45;;;;;;;38.30;6.78;;;;;;;7.77;76.41;98456.97;5020524;28;20060;-42
2023/10/25 01:57:12;;;;;;;28.27;6.82;;;;;;;7.78;76.58;98453.53;5018878;28;20072;-48
2023/10/25 01:59:40;;;;;;;36.05;6.82;;;;;;;7.77;76.20;98449.25;5020671;28;20494;-44
2023/10/25 02:02:07;;;;;;;32.08;5.65;;;;;;;7.76;75.86;98450.09;5022102;28;20503;-47
2023/10/25 02:04:34;;;;;;;39.70;4.05;;;;;;;7.75;77.50;98443.25;5026303;28;20049;-44
2023/10/25 02:07:02;;;;;;;39.95;4.40;;;;;;;7.76;77.33;98438.09;5020984;28;20056;-47
2023/10/25 02:09:29;;;;;;;40.70;4.68;;;;;;;7.78;77.38;98440.63;5017204;28;20636;-56
2023/10/25 02:11:56;;;;;;;31.83;3.83;;;;;;;7.77;76.38;98442.34;5017971;28;20520;-48
2023/10/25 02:14:23;;;;;;;20.23;5.10;;;;;;;7.75;77.45;98432.94;5021019;28;20052;-49
2023/10/25 02:16:50;;;;;;;26.60;4.22;;;;;;;7.73;76.86;98427.81;5024472;28;20427;-47
2023/10/25 02:19:18;;;;;;;30.67;5.22;;;;;;;7.72;76.65;98418.41;5018416;28;20053;-49
2023/10/25 02:21:45;;;;;;;39.80;3.58;;;;;;;7.71;77.39;98427.00;5017490;28;20051;-50
2023/10/25 02:24:14;;;;;;;26.85;4.47;;;;;;;7.70;77.42;98415.00;5024303;28;20046;-46
2023/10/25 02:26:42;;;;;;;33.65;3.25;;;;;;;7.69;77.10;98411.56;5018976;28;20060;-53
2023/10/25 02:29:09;;;;;;;40.47;3.50;;;;;;;7.64;77.06;98408.22;5022236;28;20052;-44
2023/10/25 02:31:36;;;;;;;32.85;2.90;;;;;;;7.60;76.60;98403.97;5025973;28;20402;-46
2023/10/25 02:34:04;;;;;;;29.38;2.83;;;;;;;7.60;76.46;98414.28;5023904;28;20103;-51
2023/10/25 02:36:31;;;;;;;55.45;5.22;;;;;;;7.59;77.16;98418.63;5022662;28;20049;-52
2023/10/25 02:38:58;;;;;;;25.08;3.50;;;;;;;7.60;76.92;98409.13;5018003;28;20049;-51
2023/10/25 02:41:25;;;;;;;31.60;3.10;;;;;;;7.58;77.29;98403.19;5018051;28;20061;-50
2023/10/25 02:43:53;;;;;;;26.00;3.08;;;;;;;7.59;76.50;98397.13;5019691;28;20057;-49
2023/10/25 02:46:20;;;;;;;31.67;3.40;;;;;;;7.59;76.73;98397.13;5017939;28;20171;-51
2023/10/25 02:48:47;;;;;;;25.05;4.32;;;;;;;7.60;77.75;98398.81;5022375;28;20069;-47
2023/10/25 02:51:14;;;;;;;48.72;3.33;;;;;;;7.59;76.26;98397.13;5020398;28;20136;-44
2023/10/25 02:53:40;;;;;;;34.72;3.22;;;;;;;7.61;76.72;98400.56;5018937;28;20048;-49
2023/10/25 02:56:08;;;;;;;19.55;2.55;;;;;;;7.61;76.81;98390.25;5019923;28;20069;-47
2023/10/25 02:58:35;;;;;;;36.38;3.40;;;;;;;7.62;76.97;98386.78;5020222;28;20132;-48
2023/10/25 03:01:02;;;;;;;34.85;2.88;;;;;;;7.64;76.78;98382.47;5019748;28;20406;-53
2023/10/25 03:03:30;;;;;;;15.02;4.65;;;;;;;7.66;77.14;98387.56;5023142;28;20053;-48
2023/10/25 03:05:57;;;;;;;24.58;4.05;;;;;;;7.69;76.51;98392.66;5021110;28;20517;-42
2023/10/25 03:08:26;;;;;;;23.70;2.42;;;;;;;7.71;76.82;98396.91;5023205;28;20057;-48
2023/10/25 03:10:54;;;;;;;14.75;2.88;;;;;;;7.72;77.76;98390.91;5018422;28;20046;-51
2023/10/25 03:13:20;;;;;;;11.43;3.03;;;;;;;7.75;77.09;98391.72;5020624;28;20556;-47
2023/10/25 03:15:47;;;;;;;13.85;2.60;;;;;;;7.77;76.56;98384.81;5021533;28;20621;-51
2023/10/25 03:18:14;;;;;;;15.63;4.68;;;;;;;7.78;77.44;98381.34;5021020;28;20055;-57
2023/10/25 03:20:41;;;;;;;11.38;2.88;;;;;;;7.79;77.67;98383.03;5022261;28;20047;-52
2023/10/25 03:23:08;;;;;;;13.98;3.15;;;;;;;7.79;76.87;98378.75;5020624;28;20044;-56
2023/10/25 03:25:34;;;;;;;18.45;2.58;;;;;;;7.80;77.58;98374.47;5018079;28;20073;-43
2023/10/25 03:28:01;;;;;;;24.70;3.58;;;;;;;7.81;77.94;98376.16;5018691;28;20045;-50
2023/10/25 03:30:28;;;;;;;15.63;4.03;;;;;;;7.81;77.39;98382.13;5018151;28;20049;-47
2023/10/25 03:32:55;;;;;;;17.67;3.25;;;;;;;7.84;77.45;98386.41;5017835;28;20049;-49
2023/10/25 03:35:21;;;;;;;27.58;3.13;;;;;;;7.85;77.12;98375.22;5019793;28;20049;-48
2023/10/25 03:37:48;;;;;;;22.75;2.83;;;;;;;7.88;76.65;98372.59;5022413;28;20060;-43
2023/10/25 03:40:15;;;;;;;18.73;4.18;;;;;;;7.90;77.62;98364.81;5024074;28;20498;-47
2023/10/25 03:42:41;;;;;;;25.83;4.72;;;;;;;7.92;77.18;98360.47;5011577;28;20466;-46
2023/10/25 03:45:09;;;;;;;30.17;2.38;;;;;;;7.93;78.09;98355.28;5021981;28;20049;-47
2023/10/25 03:47:37;;;;;;;31.05;4.53;;;;;;;7.92;78.26;98363.91;5026650;28;20053;-46
2023/10/25 03:50:05;;;;;;;31.42;3.30;;;;;;;7.92;77.16;98352.75;5024594;28;20041;-50
2023/10/25 03:52:32;;;;;;;49.22;4.75;;;;;;;7.94;78.36;98361.31;5026395;28;20054;-50
2023/10/25 03:54:59;;;;;;;27.75;3.08;;;;;;;7.95;77.43;98366.44;5018062;28;20060;-49
2023/10/25 03:57:26;;;;;;;26.70;2.50;;;;;;;7.96;77.96;98364.69;5022482;28;20064;-49
2023/10/25 03:59:53;;;;;;;30.23;2.63;;;;;;;7.97;78.27;98362.09;5025402;28;20045;-45
2023/10/25 04:02:20;;;;;;;33.55;2.67;;;;;;;8.00;77.70;98355.19;5026587;28;20053;-51
2023/10/25 04:04:47;;;;;;;27.85;2.17;;;;;;;8.02;78.94;98345.66;5024155;28;20050;-49
2023/10/25 04:07:14;;;;;;;17.58;1.90;;;;;;;8.03;78.44;98345.66;5028263;28;20118;-50
2023/10/25 04:09:41;;;;;;;14.52;1.83;;;;;;;8.05;78.36;98337.88;5027347;28;20049;-51
2023/10/25 04:12:12;;;;;;;21.25;2.05;;;;;;;8.06;78.76;98339.56;5027266;28;20119;-51
2023/10/25 04:14:46;;;;;;;21.92;3.50;;;;;;;8.06;77.77;98337.00;5028321;28;20050;-52
2023/10/25 04:17:13;;;;;;;63.08;4.35;;;;;;;8.09;78.93;98339.50;5028391;28;20056;-49
2023/10/25 04:19:40;;;;;;;24.55;1.70;;;;;;;8.09;78.83;98344.69;5025928;28;20053;-51
2023/10/25 04:22:08;;;;;;;28.98;1.98;;;;;;;8.10;78.78;98342.06;5018291;28;20042;-45
2023/10/25 04:24:34;;;;;;;31.20;2.28;;;;;;;8.12;78.85;98342.03;5025172;28;20579;-51
2023/10/25 04:27:01;;;;;;;29.55;1.65;;;;;;;8.14;78.37;98337.69;5023134;28;20058;-51
2023/10/25 04:29:28;;;;;;;29.33;3.67;;;;;;;8.16;78.08;98341.09;5023382;28;20049;-49
2023/10/25 04:31:55;;;;;;;21.67;3.67;;;;;;;8.18;78.80;98347.06;5029386;28;20124;-44
2023/10/25 04:34:22;;;;;;;30.95;2.22;;;;;;;8.19;78.75;98330.72;5021855;28;20150;-48
2023/10/25 04:36:49;;;;;;;15.55;2.10;;;;;;;8.20;77.95;98340.16;5026300;28;20049;-52
2023/10/25 04:39:16;;;;;;;18.23;3.65;;;;;;;8.21;78.10;98331.53;5019230;28;20125;-47
2023/10/25 04:41:43;;;;;;;30.05;2.55;;;;;;;8.23;78.52;98332.34;5024270;28;20056;-47
2023/10/25 04:44:09;;;;;;;41.20;4.43;;;;;;;8.24;78.78;98333.19;5024294;28;20072;-52
2023/10/25 04:46:36;;;;;;;13.07;2.40;;;;;;;8.25;79.09;98334.03;5023582;28;20164;-48
2023/10/25 04:49:04;;;;;;;36.05;2.53;;;;;;;8.27;79.09;98332.28;5018602;28;20049;-46
2023/10/25 04:51:31;;;;;;;41.95;4.25;;;;;;;8.26;78.40;98325.41;5021616;28;20050;-49
2023/10/25 04:53:58;;;;;;;30.35;3.80;;;;;;;8.25;79.10;98334.91;5023884;28;20678;-52
2023/10/25 04:56:24;;;;;;;27.45;2.75;;;;;;;8.27;78.73;98327.13;5020661;28;20056;-50
2023/10/25 04:58:51;;;;;;;37.15;3.13;;;;;;;8.29;78.45;98330.53;5023553;28;20058;-52
2023/10/25 05:01:18;;;;;;;16.70;2.47;;;;;;;8.31;78.50;98329.59;5026248;28;20064;-50
2023/10/25 05:03:45;;;;;;;47.42;3.15;;;;;;;8.34;79.11;98333.84;5022835;28;20049;-51
2023/10/25 05:06:13;;;;;;;26.27;2.42;;;;;;;8.35;78.21;98323.50;5023145;28;20080;-49
2023/10/25 05:08:40;;;;;;;25.02;2.83;;;;;;;8.38;79.32;98314.88;5015433;28;20053;-48
2023/10/25 05:11:07;;;;;;;29.50;2.60;;;;;;;8.40;79.28;98317.38;5017016;28;20057;-52
2023/10/25 05:13:34;;;;;;;54.45;4.00;;;;;;;8.39;79.30;98321.72;5019165;28;20045;-47
2023/10/25 05:16:01;;;;;;;64.72;3.03;;;;;;;8.40;78.31;98320.81;5016608;28;20042;-46
2023/10/25 05:18:28;;;;;;;49.45;2.55;;;;;;;8.40;79.36;98318.25;5023479;28;20756;-52
2023/10/25 05:21:00;;;;;;;49.22;3.10;;;;;;;8.39;78.38;98315.69;5023784;28;20049;-47
2023/10/25 05:23:29;;;;;;;66.78;3.85;;;;;;;8.39;79.02;98331.16;5021030;28;20052;-47
2023/10/25 05:26:00;;;;;;;42.03;2.63;;;;;;;8.36;78.72;98324.34;5022077;28;20045;-48
2023/10/25 05:28:29;;;;;;;40.55;4.13;;;;;;;8.37;79.07;98328.63;5021300;28;20081;-53
2023/10/25 05:31:00;;;;;;;40.08;3.88;;;;;;;8.38;78.55;98325.19;5025587;28;20565;-53
2023/10/25 05:33:30;;;;;;;40.35;2.67;;;;;;;8.39;78.58;98321.72;5024739;28;20141;-55
2023/10/25 05:35:59;;;;;;;19.02;2.10;;;;;;;8.39;79.22;98311.38;5014258;28;20132;-44
2023/10/25 05:38:26;;;;;;;30.30;2.50;;;;;;;8.38;79.10;98314.88;5017954;28;20049;-47
2023/10/25 05:40:53;;;;;;;35.38;2.95;;;;;;;8.35;78.75;98310.59;5022795;28;20049;-49
2023/10/25 05:43:26;;;;;;;44.75;2.78;;;;;;;8.34;78.67;98308.03;5020980;28;20499;-53
2023/10/25 05:45:53;;;;;;;26.75;2.33;;;;;;;8.29;78.58;98304.72;5020068;28;20041;-56
2023/10/25 05:48:20;;;;;;;40.28;2.25;;;;;;;8.28;79.12;98306.44;5019463;28;20057;-48
2023/10/25 05:50:50;;;;;;;56.03;3.70;;;;;;;8.25;79.06;98303.09;5020514;28;20057;-52
2023/10/25 05:53:18;;;;;;;29.38;1.55;;;;;;;8.19;78.92;98304.94;5015725;28;20057;-49
2023/10/25 05:55:46;;;;;;;19.55;1.23;;;;;;;8.16;78.26;98299.84;5019987;28;20053;-50
2023/10/25 05:58:13;;;;;;;31.90;1.17;;;;;;;8.15;78.66;98302.44;5018486;28;20099;-48
2023/10/25 06:00:46;;;;;;;8.30;0.80;;;;;;;8.15;78.78;98312.75;5023107;28;20124;-47
2023/10/25 06:03:16;;;;;;;20.65;2.88;;;;;;;8.15;78.81;98317.91;5022296;28;20051;-43
2023/10/25 06:06:00;;;;;;;14.48;3.20;;;;;;;8.10;79.36;98318.88;5020012;28;20055;-55
2023/10/25 06:08:28;;;;;;;16.48;1.33;;;;;;;8.08;79.30;98319.78;5018947;28;20069;-51
2023/10/25 06:10:55;;;;;;;18.58;1.40;;;;;;;8.06;79.53;98322.38;5022675;28;20473;-48
2023/10/25 06:13:22;;;;;;;9.70;1.00;;;;;;;8.06;79.33;98324.09;5020995;28;20053;-51
2023/10/25 06:15:49;;;;;;;18.27;2.40;;;;;;;8.04;78.88;98320.72;5024154;28;20136;-50
2023/10/25 06:18:15;;;;;;;10.88;2.95;;;;;;;8.04;78.91;98328.47;5027557;28;20045;-54
2023/10/25 06:20:42;;;;;;;18.17;2.65;;;;;;;8.00;79.00;98324.25;5022586;28;20080;-51
2023/10/25 06:23:09;;;;;;;10.93;2.85;;;;;;;8.00;78.29;98329.41;5025715;28;20061;-48
2023/10/25 06:25:36;;;;;;;8.25;2.42;;;;;;;7.97;78.45;98320.84;5022292;28;20112;-47
2023/10/25 06:28:03;;;;;;;23.25;2.95;;;;;;;7.96;78.85;98320.88;5024328;28;20053;-48
2023/10/25 06:30:30;;;;;;;14.50;3.70;;;;;;;7.95;78.57;98322.59;5023950;28;20084;-51
2023/10/25 06:32:58;;;;;;;45.42;3.30;;;;;;;7.96;79.11;98318.28;5017755;28;20053;-52
2023/10/25 06:35:25;;;;;;;21.95;1.83;;;;;;;7.96;79.21;98318.28;5020948;28;20052;-49
2023/10/25 06:37:52;;;;;;;9.02;2.78;;;;;;;7.97;78.36;98320.84;5020100;28;20048;-48
2023/10/25 06:40:19;;;;;;;25.73;1.75;;;;;;;7.98;78.95;98326.84;5019100;28;20597;-46
2023/10/25 06:42:46;;;;;;;21.77;2.92;;;;;;;7.96;78.30;98329.47;5023486;28;20065;-52
2023/10/25 06:45:14;;;;;;;10.73;1.27;;;;;;;8.01;79.22;98336.25;5019974;28;20126;-51
2023/10/25 06:47:42;;;;;;;30.27;3.78;;;;;;;8.03;78.99;98331.91;5022650;28;20049;-54
2023/10/25 06:50:12;;;;;;;13.02;2.15;;;;;;;8.04;79.39;98331.03;5019074;28;20524;-52
2023/10/25 06:52:39;;;;;;;19.33;2.17;;;;;;;8.06;78.89;98324.09;5023529;28;20060;-49
2023/10/25 06:55:07;;;;;;;26.27;4.82;;;;;;;8.06;79.15;98324.97;5015600;28;20107;-48
2023/10/25 06:57:35;;;;;;;20.80;2.67;;;;;;;8.06;78.87;98322.38;5023256;28;20623;-44
2023/10/25 07:00:08;;;;;;;40.78;4.00;;;;;;;8.08;78.38;98322.34;5019338;28;20104;-54
2023/10/25 07:02:49;;;;;;;30.33;2.55;;;;;;;8.08;78.14;98327.50;5016472;28;20056;-45
2023/10/25 07:05:21;;;;;;;16.70;4.18;;;;;;;8.10;78.28;98315.41;5022362;28;20140;-50
2023/10/25 07:07:49;;;;;;;13.55;2.80;;;;;;;8.11;78.46;98327.47;5019891;28;20048;-50
2023/10/25 07:10:17;;;;;;;21.88;4.18;;;;;;;8.10;79.22;98316.28;5021539;28;20446;-51
2023/10/25 07:12:45;;;;;;;21.70;4.70;;;;;;;8.11;78.69;98317.13;5016505;28;20045;-45
2023/10/25 07:15:11;;;;;;;26.20;3.30;;;;;;;8.12;78.60;98313.69;5018855;28;20048;-48
2023/10/25 07:17:38;;;;;;;18.10;3.28;;;;;;;8.14;79.09;98311.91;5021066;28;20045;-46
2023/10/25 07:20:06;;;;;;;9.50;3.58;;;;;;;8.15;79.15;98308.47;5016776;28;20049;-49
2023/10/25 07:22:33;;;;;;;12.73;6.15;;;;;;;8.15;78.34;98313.63;5025040;28;20152;-55
2023/10/25 07:25:00;;;;;;;10.98;4.72;;;;;;;8.17;79.21;98314.41;5017705;28;20041;-48
2023/10/25 07:27:26;;;;;;;14.73;5.00;;;;;;;8.17;79.38;98311.84;5015109;28;20057;-49
2023/10/25 07:29:53;;;;;;;15.20;4.30;;;;;;;8.19;79.03;98304.94;5020605;28;20057;-45
2023/10/25 07:32:20;;;;;;;13.52;4.93;;;;;;;8.21;79.71;98308.31;5014792;28;20064;-51
2023/10/25 07:34:47;;;;;;;15.23;5.57;;;;;;;8.25;79.20;98314.28;5022583;28;20045;-51
2023/10/25 07:37:15;;;;;;;11.20;5.22;;;;;;;8.26;79.42;98326.28;5025714;28;20057;-51
2023/10/25 07:39:41;;;;;;;11.60;5.18;;;;;;;8.26;78.86;98309.94;5025942;28;20128;-54
2023/10/25 07:42:08;;;;;;;15.15;5.38;;;;;;;8.26;78.32;98309.94;5019016;28;20048;-48
2023/10/25 07:44:35;;;;;;;15.25;5.10;;;;;;;8.28;78.91;98308.19;5018929;28;20563;-51
2023/10/25 07:47:03;;;;;;;14.63;5.47;;;;;;;8.31;79.01;98313.28;5026342;28;20041;-55
2023/10/25 07:49:35;;;;;;;14.68;6.40;;;;;;;8.34;79.01;98308.03;5026920;28;20118;-48
2023/10/25 07:52:02;;;;;;;13.38;5.03;;;;;;;8.35;79.18;98309.75;5030362;28;20441;-51
2023/10/25 07:54:29;;;;;;;14.32;5.15;;;;;;;8.37;78.93;98307.97;5029574;28;20463;-49
2023/10/25 07:56:56;;;;;;;10.52;4.72;;;;;;;8.34;79.02;98302.88;5024221;28;20073;-54
2023/10/25 07:59:26;;;;;;;11.30;3.25;;;;;;;8.32;79.36;98304.66;5025390;28;20045;-51
2023/10/25 08:01:52;;;;;;;15.90;5.35;;;;;;;8.32;78.68;98296.94;5028228;28;20053;-48
2023/10/25 08:04:19;;;;;;;13.88;5.82;;;;;;;8.31;78.80;98292.66;5026972;28;20133;-49
2023/10/25 08:06:46;;;;;;;10.23;2.83;;;;;;;8.29;79.06;98294.41;5023303;28;20058;-52
2023/10/25 08:09:12;;;;;;;12.95;5.55;;;;;;;8.30;79.51;98290.94;5024450;28;20210;-49
2023/10/25 08:11:39;;;;;;;16.23;4.97;;;;;;;8.28;78.79;98282.41;5027227;28;20111;-48
2023/10/25 08:14:06;;;;;;;11.00;3.55;;;;;;;8.30;79.46;98290.94;5028053;28;20053;-48
2023/10/25 08:16:34;;;;;;;11.63;5.00;;;;;;;8.30;79.54;98286.63;5020509;28;20079;-48
2023/10/25 08:19:01;;;;;;;17.52;5.47;;;;;;;8.31;78.83;98287.50;5023566;28;20046;-53
2023/10/25 08:21:28;;;;;;;19.42;4.25;;;;;;;8.32;79.55;98278.88;5024610;28;20053;-46
2023/10/25 08:23:55;;;;;;;14.77;5.97;;;;;;;8.33;79.88;98299.47;5024673;28;20045;-51
2023/10/25 08:26:25;;;;;;;19.58;5.22;;;;;;;8.38;79.84;98294.22;5022387;28;20250;-49
2023/10/25 08:28:52;;;;;;;13.88;3.97;;;;;;;8.40;79.56;98296.75;5021566;28;20107;-47
2023/10/25 08:31:19;;;;;;;11.68;6.65;;;;;;;8.39;79.29;98295.91;5020369;28;20060;-50
2023/10/25 08:33:46;;;;;;;13.35;4.53;;;;;;;8.36;79.49;98295.97;5024097;28;20455;-49
2023/10/25 08:36:13;;;;;;;12.18;4.80;;;;;;;8.35;79.40;98292.53;5017745;28;20059;-51
2023/10/25 08:38:39;;;;;;;13.30;4.47;;;;;;;8.33;79.46;98290.88;5020767;28;20100;-53
2023/10/25 08:41:07;;;;;;;9.68;4.88;;;;;;;8.34;78.66;98292.56;5023617;28;20056;-51
2023/10/25 08:43:35;;;;;;;11.35;3.28;;;;;;;8.35;79.09;98291.72;5026341;28;20041;-46
2023/10/25 08:46:03;;;;;;;15.05;3.65;;;;;;;8.39;79.42;98295.91;5020798;28;20053;-50
2023/10/25 08:48:31;;;;;;;16.17;5.68;;;;;;;8.44;79.21;98286.31;5024228;28;20049;-55
2023/10/25 08:51:00;;;;;;;12.48;5.85;;;;;;;8.49;78.97;98279.31;5027214;28;20140;-49
2023/10/25 08:53:28;;;;;;;19.52;4.47;;;;;;;8.57;79.48;98278.34;5024624;28;20099;-49
2023/10/25 08:55:56;;;;;;;13.82;5.57;;;;;;;8.60;78.78;98279.13;5026604;28;20125;-57
2023/10/25 08:58:24;;;;;;;13.15;4.15;;;;;;;8.65;79.70;98279.00;5024491;28;20410;-48
2023/10/25 09:00:52;;;;;;;18.63;6.00;;;;;;;8.71;78.93;98271.13;5025288;28;20045;-47
2023/10/25 09:03:40;;;;;;;14.05;5.35;;;;;;;8.71;79.14;98271.13;5023651;28;20054;-50
2023/10/25 09:06:08;;;;;;;25.38;5.40;;;;;;;8.73;78.62;98269.38;5022734;28;20041;-53
2023/10/25 09:08:37;;;;;;;15.65;6.18;;;;;;;8.77;79.11;98264.09;5026331;28;20447;-51
2023/10/25 09:11:08;;;;;;;15.23;5.38;;;;;;;8.80;79.43;98259.75;5024223;28;20063;-46
2023/10/25 09:13:37;;;;;;;11.48;4.13;;;;;;;8.85;79.21;98262.22;5024671;28;20042;-43
2023/10/25 09:16:08;;;;;;;16.27;4.18;;;;;;;8.88;78.76;98269.84;5023142;28;20099;-47
2023/10/25 09:18:37;;;;;;;13.15;3.95;;;;;;;8.91;79.05;98276.72;5017656;28;20045;-44
2023/10/25 09:21:05;;;;;;;11.90;3.70;;;;;;;8.92;78.78;98275.81;5023745;28;20067;-47
2023/10/25 09:23:39;;;;;;;8.68;3.28;;;;;;;8.91;78.83;98261.22;5016453;28;20042;-44
2023/10/25 09:26:15;;;;;;;15.50;4.20;;;;;;;8.89;78.79;98268.13;5020464;28;20049;-48
2023/10/25 09:28:45;;;;;;;14.15;4.53;;;;;;;8.91;78.91;98267.22;5008889;28;20483;-46
2023/10/25 09:31:29;;;;;;;13.70;3.47;;;;;;;8.97;78.98;98272.22;5019150;28;20052;-48
2023/10/25 09:33:57;;;;;;;13.50;4.28;;;;;;;9.10;79.37;98277.09;5019030;28;20048;-51
2023/10/25 09:36:26;;;;;;;18.52;4.53;;;;;;;9.28;79.08;98273.19;5023425;28;20080;-44
2023/10/25 09:38:54;;;;;;;15.27;4.63;;;;;;;9.42;79.22;98277.16;5024633;28;20050;-43
2023/10/25 09:41:23;;;;;;;18.15;5.15;;;;;;;9.54;79.36;98279.41;5019784;28;20196;-48
2023/10/25 09:43:52;;;;;;;11.88;3.25;;;;;;;9.63;78.84;98275.72;5027903;28;20522;-51
2023/10/25 09:46:21;;;;;;;20.42;4.75;;;;;;;9.79;78.80;98280.47;5017366;28;20049;-47
2023/10/25 09:54:11;;;;;;;13.25;5.20;;;;;;;9.85;77.90;98275.09;5036191;28;20413;-47
2023/10/25 09:56:39;;;;;;;13.00;5.65;;;;;;;9.84;78.21;98287.22;5019181;28;20081;-53
2023/10/25 09:59:11;;;;;;;11.40;3.53;;;;;;;9.88;77.91;98290.53;5024734;28;20424;-52
2023/10/25 10:01:39;;;;;;;15.32;6.22;;;;;;;9.95;77.79;98296.38;5021516;28;20054;-43
2023/10/25 10:04:21;;;;;;;14.50;5.80;;;;;;;9.96;78.36;98298.94;5026014;28;20049;-42
2023/10/25 10:09:47;;;;;;;15.82;5.90;;;;;;;10.49;78.28;98301.75;5023644;27;20406;-51
2023/10/25 10:12:14;;;;;;;13.73;5.00;;;;;;;10.80;78.53;98296.47;4997712;28;20526;-51
2023/10/25 10:14:41;;;;;;;12.50;4.65;;;;;;;10.88;77.77;98303.16;5002535;28;20504;-48
2023/10/25 10:19:46;;;;;;;17.30;6.10;;;;;;;11.07;76.97;98292.19;5077034;27;20408;-49
2023/10/25 10:22:15;;;;;;;16.15;6.38;;;;;;;10.95;77.27;98289.09;5012281;28;20058;-45
2023/10/25 10:27:23;;;;;;;17.40;5.32;;;;;;;10.96;76.57;98285.63;5032744;27;20404;-52
2023/10/25 10:29:50;;;;;;;11.02;3.80;;;;;;;10.90;76.44;98285.81;5009657;28;20066;-46
2023/10/25 10:32:17;;;;;;;15.38;5.55;;;;;;;10.99;76.64;98285.50;5019285;28;20053;-52
2023/10/25 10:37:25;;;;;;;11.93;3.72;;;;;;;11.29;76.01;98295.72;5064515;28;20384;-48
2023/10/25 10:42:38;;;;;;;8.50;3.70;;;;;;;11.27;76.05;98299.28;5029600;28;20421;-52
2023/10/25 10:45:06;;;;;;;11.50;3.22;;;;;;;11.38;75.79;98293.75;5036016;28;20051;-53
2023/10/25 10:50:14;;;;;;;13.57;4.72;;;;;;;11.67;74.82;98286.69;5095335;27;20376;-51
2023/10/25 10:52:43;;;;;;;9.43;4.93;;;;;;;11.72;75.20;98289.13;5044390;28;20045;-48
2023/10/25 10:55:13;;;;;;;10.25;5.03;;;;;;;11.72;75.66;98282.16;5050829;28;20132;-45
2023/10/25 10:57:40;;;;;;;;;;;;;;;11.67;74.64;98287.53;5052325;28;20053;-47
2023/10/25 11:00:25;;;;;;;11.10;5.40;;;;;;;11.81;75.35;98279.25;5044740;28;19932;-48
2023/10/25 11:02:53;;;;;;;12.02;4.82;;;;;;;11.94;74.96;98273.63;5051842;28;20053;-44
2023/10/25 11:05:22;;;;;;;15.70;4.80;;;;;;;12.00;75.31;98278.59;5043286;28;20099;-48
2023/10/25 11:07:51;;;;;;;7.43;4.18;;;;;;;12.08;74.68;98279.19;5052813;28;20049;-52
2023/10/25 11:10:19;;;;;;;11.32;5.47;;;;;;;12.15;74.59;98274.59;5048855;28;20131;-52
2023/10/25 11:12:45;;;;;;;10.68;3.05;;;;;;;12.25;74.26;98277.69;5041298;28;20422;-50
2023/10/25 11:15:13;;;;;;;10.73;5.13;;;;;;;12.50;73.93;98284.53;5044247;28;20053;-51
2023/10/25 11:17:40;;;;;;;12.65;4.78;;;;;;;12.58;73.79;98285.09;5042732;28;20049;-49
2023/10/25 11:20:08;;;;;;;11.88;6.60;;;;;;;12.69;73.68;98291.59;5049645;28;20049;-51
2023/10/25 11:22:36;;;;;;;12.60;5.32;;;;;;;12.77;72.79;98284.31;5041593;28;20041;-47
2023/10/25 11:25:10;;;;;;;11.00;5.63;;;;;;;12.79;73.41;98282.53;5045428;28;20055;-47
2023/10/25 11:27:38;;;;;;;13.73;6.35;;;;;;;12.74;72.37;98279.28;5040763;28;20048;-51
2023/10/25 11:30:05;;;;;;;14.10;5.00;;;;;;;12.77;73.70;98281.72;5045304;28;20057;-42
2023/10/25 11:32:33;;;;;;;11.15;4.97;;;;;;;12.82;73.10;98282.41;5054899;28;20122;-43
2023/10/25 11:35:00;;;;;;;10.25;5.03;;;;;;;12.87;73.16;98283.97;5063752;28;20523;-41
2023/10/25 11:37:27;;;;;;;10.80;5.22;;;;;;;12.98;73.56;98281.78;5084092;28;20060;-50
2023/10/25 11:42:32;;;;;;;12.20;4.60;;;;;;;13.43;73.14;98282.50;5032377;28;20409;-46
2023/10/25 11:45:00;;;;;;;8.85;3.72;;;;;;;13.56;71.65;98288.06;5001262;28;20072;-50
2023/10/25 11:47:28;;;;;;;10.13;3.97;;;;;;;13.72;71.94;98282.19;5005885;28;20050;-49
2023/10/25 11:49:56;;;;;;;9.18;3.50;;;;;;;13.79;71.97;98282.75;5010992;28;20056;-50
2023/10/25 11:52:25;;;;;;;12.70;4.30;;;;;;;13.83;70.93;98266.94;5006605;28;20073;-61
2023/10/25 11:54:56;;;;;;;8.93;3.38;;;;;;;13.81;70.56;98270.53;5037086;28;20060;-49
2023/10/25 11:57:32;;;;;;;8.45;3.50;;;;;;;13.99;70.81;98271.47;5009370;28;20061;-50
2023/10/25 11:59:59;;;;;;;11.13;3.50;;;;;;;14.24;69.84;98262.50;5028061;28;20038;-52
2023/10/25 12:02:27;;;;;;;7.93;3.60;;;;;;;14.32;69.88;98267.38;5023930;28;20086;-51